createdAt,value
2022-09-12T00:01:59.377Z,2.95
2022-09-12T00:07:03.212Z,3.60
2022-09-12T00:12:07.282Z,3.13
2022-09-12T00:17:12.649Z,3.40
2022-09-12T00:22:16.449Z,2.90
2022-09-12T00:27:20.462Z,3.08
2022-09-12T00:32:25.719Z,3.17
2022-09-12T00:37:29.573Z,2.97
2022-09-12T00:42:33.386Z,2.83
2022-09-12T00:47:38.945Z,2.80
2022-09-12T00:52:45.300Z,2.53
2022-09-12T00:57:51.831Z,2.83
2022-09-12T01:02:59.544Z,2.85
2022-09-12T01:08:04.418Z,3.17
2022-09-12T01:13:09.669Z,2.80
2022-09-12T01:18:21.561Z,2.97
2022-09-12T01:23:57.762Z,2.53
2022-09-12T01:29:16.343Z,2.75
2022-09-12T01:34:28.247Z,2.65
2022-09-12T01:39:39.058Z,2.40
2022-09-12T01:44:48.282Z,2.60
2022-09-12T01:49:58.359Z,2.80
2022-09-12T01:55:09.550Z,2.78
2022-09-12T02:00:14.646Z,2.40
2022-09-12T02:05:22.875Z,2.35
2022-09-12T02:10:32.480Z,2.25
2022-09-12T02:15:40.016Z,2.58
2022-09-12T02:20:48.798Z,2.60
2022-09-12T02:25:55.762Z,2.03
2022-09-12T02:31:04.952Z,2.38
2022-09-12T02:36:15.523Z,2.20
2022-09-12T02:41:22.346Z,2.33
2022-09-12T02:46:28.986Z,2.53
2022-09-12T02:51:34.211Z,2.80
2022-09-12T02:56:41.858Z,2.77
2022-09-12T03:01:59.328Z,2.70
2022-09-12T03:07:13.654Z,3.00
2022-09-12T03:12:28.083Z,2.95
2022-09-12T03:17:39.560Z,2.72
2022-09-12T03:22:51.516Z,2.55
2022-09-12T03:27:58.625Z,2.20
2022-09-12T03:33:02.394Z,2.10
2022-09-12T03:38:08.239Z,2.20
2022-09-12T03:43:13.430Z,2.17
2022-09-12T03:48:17.364Z,2.83
2022-09-12T03:53:22.574Z,3.22
2022-09-12T03:58:27.143Z,3.10
2022-09-12T04:03:30.947Z,2.97
2022-09-12T04:08:36.437Z,2.55
2022-09-12T04:13:41.300Z,3.75
2022-09-12T04:18:45.406Z,3.55
2022-09-12T04:23:51.298Z,4.28
2022-09-12T04:28:57.669Z,4.22
2022-09-12T04:34:02.412Z,4.20
2022-09-12T04:39:08.233Z,3.83
2022-09-12T04:44:13.976Z,4.18
2022-09-12T04:49:19.487Z,3.00
2022-09-12T04:54:24.751Z,6.57
2022-09-12T04:59:29.516Z,4.85
2022-09-12T05:04:33.800Z,8.35
2022-09-12T05:09:39.259Z,5.72
2022-09-12T05:14:43.106Z,9.68
2022-09-12T05:19:47.023Z,4.45
2022-09-12T05:24:52.182Z,4.40
2022-09-12T05:29:56.032Z,4.77
2022-09-12T05:35:00.430Z,4.55
2022-09-12T05:40:08.659Z,4.03
2022-09-12T05:45:12.468Z,5.00
2022-09-12T05:50:16.353Z,3.97
2022-09-12T05:55:21.635Z,3.63
2022-09-12T06:00:25.415Z,4.30
2022-09-12T06:05:29.212Z,3.55
2022-09-12T06:10:35.398Z,3.83
2022-09-12T06:15:39.213Z,4.07
2022-09-12T06:20:42.991Z,3.83
2022-09-12T06:25:52.104Z,4.35
2022-09-12T06:30:56.100Z,4.25
2022-09-12T06:36:07.894Z,4.13
2022-09-12T06:41:15.955Z,4.57
2022-09-12T06:46:20.225Z,4.25
2022-09-12T06:51:24.663Z,3.95
2022-09-12T06:56:30.079Z,3.78
2022-09-12T07:01:34.395Z,4.35
2022-09-12T07:06:39.987Z,4.57
2022-09-12T07:11:46.343Z,3.65
2022-09-12T07:16:50.178Z,2.50
2022-09-12T07:21:58.040Z,2.30
2022-09-12T07:27:03.948Z,2.78
2022-09-12T07:32:08.735Z,2.65
2022-09-12T07:37:12.526Z,3.20
2022-09-12T07:42:18.039Z,2.53
2022-09-12T07:47:21.910Z,1.77
2022-09-12T07:52:25.798Z,2.33
2022-09-12T07:57:31.015Z,6.35
2022-09-12T08:02:34.856Z,2.00
2022-09-12T08:07:38.804Z,2.38
2022-09-12T08:12:43.995Z,1.52
2022-09-12T08:17:47.779Z,4.20
2022-09-12T08:22:51.724Z,1.83
2022-09-12T08:27:57.263Z,1.77
2022-09-12T08:38:04.560Z,2.10
2022-09-12T08:43:15.983Z,2.38
2022-09-12T08:48:19.960Z,2.83
2022-09-12T08:53:25.023Z,1.70
2022-09-12T08:58:30.664Z,1.70
2022-09-12T09:04:05.486Z,2.67
2022-09-12T09:09:12.070Z,3.47
2022-09-12T09:14:50.361Z,3.85
2022-09-12T09:19:59.635Z,4.10
2022-09-12T09:25:08.282Z,1.23
2022-09-12T09:30:17.866Z,2.20
2022-09-12T09:35:36.182Z,1.77
2022-09-12T09:40:47.608Z,1.17
2022-09-12T09:45:53.253Z,2.03
2022-09-12T09:51:00.168Z,1.50
2022-09-12T09:56:09.134Z,1.58
2022-09-12T10:01:17.580Z,1.27
2022-09-12T10:06:32.455Z,4.72
2022-09-12T10:11:36.450Z,2.33
2022-09-12T10:16:54.456Z,1.10
2022-09-12T10:21:58.466Z,1.40
2022-09-12T10:27:09.562Z,1.57
2022-09-12T10:32:22.134Z,1.38
2022-09-12T10:37:31.000Z,1.10
2022-09-12T10:42:47.980Z,2.08
2022-09-12T10:47:54.495Z,1.27
2022-09-12T10:53:20.375Z,1.88
2022-09-12T10:58:36.648Z,1.42
2022-09-12T11:03:55.887Z,1.52
2022-09-12T11:09:04.970Z,2.97
2022-09-12T11:14:29.099Z,2.35
2022-09-12T11:19:53.383Z,3.08
2022-09-12T11:25:19.340Z,1.80
2022-09-12T11:30:23.383Z,1.60
2022-09-12T11:35:30.240Z,1.20
2022-09-12T11:40:39.498Z,1.15
2022-09-12T11:45:46.169Z,1.27
2022-09-12T11:50:52.375Z,1.38
2022-09-12T11:56:02.023Z,1.30
2022-09-12T12:01:12.953Z,1.60
2022-09-12T12:06:20.409Z,1.17
2022-09-12T12:11:31.093Z,1.08
2022-09-12T12:16:35.647Z,1.13
2022-09-12T12:21:42.641Z,1.20
2022-09-12T12:26:57.838Z,0.98
2022-09-12T12:32:28.507Z,0.82
2022-09-12T12:37:54.405Z,1.02
2022-09-12T12:43:26.419Z,1.10
2022-09-12T12:48:35.417Z,1.35
2022-09-12T12:53:42.844Z,1.50
2022-09-12T12:58:47.336Z,1.40
2022-09-12T13:03:55.978Z,1.53
2022-09-12T13:09:04.402Z,1.83
2022-09-12T13:14:09.755Z,1.90
2022-09-12T13:19:18.219Z,1.55
2022-09-12T13:24:25.028Z,1.40
2022-09-12T13:29:29.668Z,1.00
2022-09-12T13:34:35.742Z,1.35
2022-09-12T13:39:48.483Z,1.38
2022-09-12T13:44:54.529Z,1.00
2022-09-12T13:49:59.002Z,0.70
2022-09-12T13:55:09.070Z,1.23
2022-09-12T14:00:20.107Z,1.20
2022-09-12T14:05:26.848Z,0.70
2022-09-12T14:10:33.582Z,1.60
2022-09-12T14:15:38.461Z,1.13
2022-09-12T14:20:42.848Z,0.93
2022-09-12T14:25:48.861Z,2.40
2022-09-12T14:31:03.429Z,1.27
2022-09-12T14:36:12.191Z,2.33
2022-09-12T14:41:25.104Z,1.23
2022-09-12T14:46:32.367Z,1.33
2022-09-12T14:51:39.751Z,1.38
2022-09-12T14:56:46.474Z,1.90
2022-09-12T15:01:50.464Z,1.73
2022-09-12T15:06:54.240Z,1.63
2022-09-12T15:11:59.365Z,1.85
2022-09-12T15:17:03.152Z,1.50
2022-09-12T15:22:06.925Z,1.40
2022-09-12T15:27:13.305Z,1.88
2022-09-12T15:32:24.541Z,1.25
2022-09-12T15:37:28.503Z,2.08
2022-09-12T15:42:33.724Z,1.55
2022-09-12T15:47:37.430Z,2.78
2022-09-12T15:52:41.444Z,2.33
2022-09-12T15:57:46.801Z,2.20
2022-09-12T16:02:52.114Z,3.60
2022-09-12T16:07:56.616Z,2.28
2022-09-12T16:13:01.854Z,1.88
2022-09-12T16:18:05.791Z,1.42
2022-09-12T16:23:11.419Z,2.15
2022-09-12T16:28:16.559Z,1.60
2022-09-12T16:33:20.358Z,1.60
2022-09-12T16:38:24.232Z,1.95
2022-09-12T16:43:29.387Z,2.20
2022-09-12T16:48:33.993Z,2.90
2022-09-12T16:53:39.247Z,3.10
2022-09-12T16:58:44.989Z,2.35
2022-09-12T17:03:49.383Z,2.90
2022-09-12T17:08:54.745Z,2.60
2022-09-12T17:14:05.052Z,3.03
2022-09-12T17:19:11.969Z,3.22
2022-09-12T17:24:16.345Z,2.72
2022-09-12T17:29:21.919Z,2.88
2022-09-12T17:34:25.715Z,3.38
2022-09-12T17:39:29.634Z,2.83
2022-09-12T17:44:35.945Z,2.88
2022-09-12T17:49:40.381Z,2.42
2022-09-12T17:54:44.307Z,2.95
2022-09-12T17:59:49.593Z,5.57
2022-09-12T18:04:53.483Z,3.90
2022-09-12T18:09:58.241Z,4.00
2022-09-12T18:15:03.428Z,4.07
2022-09-12T18:20:08.100Z,2.90
2022-09-12T18:25:12.267Z,2.78
2022-09-12T18:30:21.988Z,2.40
2022-09-12T18:35:26.071Z,3.38
2022-09-12T18:40:29.851Z,2.70
2022-09-12T18:45:35.752Z,2.97
2022-09-12T18:50:39.557Z,2.75
2022-09-12T18:55:43.340Z,2.85
2022-09-12T19:00:49.615Z,2.80
2022-09-12T19:05:53.587Z,3.28
2022-09-12T19:10:57.556Z,2.47
2022-09-12T19:16:03.657Z,2.50
2022-09-12T19:21:08.660Z,2.17
2022-09-12T19:26:13.853Z,3.00
2022-09-12T19:31:20.803Z,2.40
2022-09-12T19:41:48.644Z,3.58
2022-09-12T19:46:54.268Z,3.08
2022-09-12T19:51:58.035Z,2.80
2022-09-12T19:57:01.801Z,3.97
2022-09-12T20:02:07.230Z,3.60
2022-09-12T20:07:11.087Z,4.07
2022-09-12T20:12:15.287Z,3.25
2022-09-12T20:17:21.029Z,3.00
2022-09-12T20:22:24.986Z,2.42
2022-09-12T20:27:28.838Z,2.88
2022-09-12T20:32:33.996Z,2.72
2022-09-12T20:37:40.073Z,2.92
2022-09-12T20:42:43.803Z,3.08
2022-09-12T20:47:49.014Z,3.08
2022-09-12T20:52:52.770Z,3.17
2022-09-12T20:57:56.577Z,3.30
2022-09-12T21:03:02.127Z,3.03
2022-09-12T21:08:06.471Z,3.53
2022-09-12T21:13:11.035Z,3.22
2022-09-12T21:18:16.226Z,3.75
2022-09-12T21:23:20.072Z,3.63
2022-09-12T21:28:24.111Z,3.90
2022-09-12T21:33:29.504Z,3.70
2022-09-12T21:38:33.696Z,3.57
2022-09-12T21:43:37.883Z,3.05
2022-09-12T21:48:44.129Z,3.30
2022-09-12T21:58:51.492Z,3.20
2022-09-12T22:03:56.948Z,2.80
2022-09-12T22:09:01.063Z,2.90
2022-09-12T22:14:05.076Z,2.80
2022-09-12T22:19:10.251Z,2.90
2022-09-12T22:24:29.323Z,2.65
2022-09-12T22:29:33.647Z,2.85
2022-09-12T22:34:38.880Z,2.97
2022-09-12T22:39:42.677Z,2.70
2022-09-12T22:44:46.473Z,2.50
2022-09-12T22:49:51.660Z,2.78
2022-09-12T22:54:55.402Z,2.97
2022-09-12T22:59:59.160Z,2.50
2022-09-12T23:05:04.564Z,2.42
2022-09-12T23:10:09.598Z,2.30
2022-09-12T23:15:13.399Z,2.40
2022-09-12T23:20:18.728Z,2.50
2022-09-12T23:25:23.779Z,2.37
2022-09-12T23:30:27.584Z,2.17
2022-09-12T23:35:32.766Z,2.03
2022-09-12T23:40:36.511Z,2.30
2022-09-12T23:45:40.382Z,2.00
2022-09-12T23:50:46.804Z,2.42
2022-09-12T23:55:50.887Z,2.10
